Mercur 205 — YP2630 — position and weather

sailwx.info

Track history (hours):
 
Tides and Currents Weather Stations Pressure Air Temp Water Temp Dewpoint Dewpoint Depression Visibility Wind Speed Wind Dir Waves Ship Positions

Mercur 205

Last reported at 2018-Jun-23 17:29 UTC. Time now 2018-Jun-23 17:28 UTC.
Position N 44°16' E 028°08'.

Length 34 m; draft 2.3 m.

Type: Ship. MMSI: 264162630.

Date/timePositionNaut miles runAvg speedWind from/ knotsBaromVisibWave heightAir tempDewpointWater temp
2018-Jun-23 17:29N 44°16' E 028°08'3 4.9
2018-Jun-23 16:56N 44°17' E 028°05'  
2018-Jun-20 02:53N 44°30' E 022°12'2 5.5
2018-Jun-20 02:31N 44°29' E 022°11'3 5.4
2018-Jun-20 02:01N 44°29' E 022°07'3 5.7
2018-Jun-20 01:31N 44°31' E 022°04'3 5.8
2018-Jun-20 01:01N 44°33' E 022°02'3 5.6
2018-Jun-20 00:30N 44°36' E 022°01'26 2.7
2018-Jun-19 14:58N 44°47' E 021°28'8 4.7
2018-Jun-19 13:09N 44°48' E 021°16'2 5.9
2018-Jun-19 12:53N 44°47' E 021°14'2 6.1
2018-Jun-19 12:30N 44°46' E 021°11'3 5.8
2018-Jun-19 12:00N 44°44' E 021°08'4 6.1
2018-Jun-19 11:24N 44°43' E 021°03'2 6.0
2018-Jun-19 11:00N 44°43' E 020°60'3 6.0
2018-Jun-19 10:30N 44°41' E 020°56'1 2.4
2018-Jun-19 10:00N 44°40' E 020°55'0 0.0
2018-Jun-19 09:30N 44°40' E 020°55'0 0.0
2018-Jun-19 09:00N 44°40' E 020°55'1 0.1
2018-Jun-19 02:54N 44°40' E 020°54'2 5.6
2018-Jun-19 02:29N 44°40' E 020°51'9 5.1
2018-Jun-19 00:42N 44°44' E 020°40'2 5.5
2018-Jun-19 00:25N 44°45' E 020°38'2 5.0
2018-Jun-19 00:00N 44°47' E 020°38'3 5.3
2018-Jun-18 23:30N 44°50' E 020°39'1 2.3
2018-Jun-18 23:00N 44°51' E 020°38'1 1.2
2018-Jun-18 22:31N 44°50' E 020°38'0 0.4
2018-Jun-18 22:01N 44°50' E 020°38'1 1.1
2018-Jun-18 21:30N 44°51' E 020°39'0 0.0
2018-Jun-18 21:01N 44°51' E 020°39'1 1.3
2018-Jun-18 20:30N 44°50' E 020°38'0 0.6
2018-Jun-18 20:01N 44°50' E 020°38'2 4.5
2018-Jun-18 19:30N 44°51' E 020°35'3 5.3
2018-Jun-18 19:01N 44°50' E 020°32'3 5.3
2018-Jun-18 18:31N 44°50' E 020°28'3 5.5
2018-Jun-18 18:01N 44°51' E 020°25'3 5.6
2018-Jun-18 17:30N 44°53' E 020°22'3 5.3
2018-Jun-18 17:00N 44°55' E 020°20'3 5.8
2018-Jun-18 16:31N 44°57' E 020°17'3 5.2
2018-Jun-18 16:01N 44°60' E 020°19'3 5.5
2018-Jun-18 15:31N 45°01' E 020°22'3 5.6
2018-Jun-18 15:00N 45°04' E 020°21'6 5.9
2018-Jun-18 14:04N 45°09' E 020°16'1 5.8
2018-Jun-18 13:58N 45°09' E 020°16'2 5.4
2018-Jun-18 13:31N 45°10' E 020°13'3 5.1
2018-Jun-18 13:01N 45°11' E 020°09'3 5.9
2018-Jun-18 12:31N 45°10' E 020°05'3 5.7
2018-Jun-18 12:01N 45°10' E 020°01'3 5.5
2018-Jun-18 11:31N 45°12' E 019°58'3 5.7
2018-Jun-18 11:01N 45°14' E 019°55'1 3.0
2018-Jun-18 10:31N 45°15' E 019°54'0 0.1
2018-Jun-18 10:01N 45°15' E 019°54'0 0.0
2018-Jun-18 09:31N 45°15' E 019°54'0 0.0
2018-Jun-18 09:01N 45°15' E 019°54'1 2.2
2018-Jun-18 08:31N 45°16' E 019°53'3 5.3
2018-Jun-18 08:00N 45°14' E 019°50'0 0.1
2018-Jun-18 07:31N 45°14' E 019°50'2 3.5
2018-Jun-18 07:01N 45°15' E 019°51'1 2.0
2018-Jun-18 06:31N 45°16' E 019°53'1 2.5
2018-Jun-18 06:00N 45°15' E 019°54'1 2.8
2018-Jun-18 05:31N 45°16' E 019°52'3 5.0
2018-Jun-18 05:01N 45°14' E 019°50'1 2.3
2018-Jun-18 04:30N 45°15' E 019°52'2 3.4
2018-Jun-18 04:01N 45°15' E 019°54'0 0.2
2018-Jun-18 03:31N 45°15' E 019°54'3 5.3
2018-Jun-18 03:01N 45°14' E 019°51'0 0.8
2018-Jun-18 02:31N 45°14' E 019°50'0 0.1
2018-Jun-18 02:01N 45°14' E 019°50'1 1.8
2018-Jun-18 01:31N 45°13' E 019°49'3 5.4
2018-Jun-18 01:01N 45°14' E 019°45'3 5.6
2018-Jun-18 00:28N 45°14' E 019°41'4 5.9
2018-Jun-17 23:43N 45°13' E 019°35'1 5.4
2018-Jun-17 23:28N 45°14' E 019°34'2 4.8
2018-Jun-17 23:00N 45°15' E 019°31'3 5.8
2018-Jun-17 22:31N 45°14' E 019°28'3 5.9
2018-Jun-17 22:01N 45°14' E 019°23'3 6.0
2018-Jun-17 21:31N 45°14' E 019°19'3 6.0
2018-Jun-17 21:01N 45°15' E 019°15'3 6.2
2018-Jun-17 20:31N 45°16' E 019°11'3 6.1
2018-Jun-17 20:01N 45°17' E 019°07'3 5.2
2018-Jun-17 19:30N 45°20' E 019°06'3 5.7
2018-Jun-17 19:00N 45°21' E 019°02'3 5.8
2018-Jun-17 18:31N 45°22' E 018°59'2 4.2
2018-Jun-17 18:00N 45°24' E 019°01'2 3.9
2018-Jun-17 17:31N 45°26' E 019°01'3 5.1
2018-Jun-17 17:00N 45°28' E 018°59'2 3.8
2018-Jun-17 16:31N 45°29' E 019°02'3 5.7
2018-Jun-17 16:01N 45°30' E 019°06'3 5.1
2018-Jun-17 15:31N 45°32' E 019°04'3 5.1
2018-Jun-17 15:01N 45°34' E 019°01'3 5.8
2018-Jun-17 14:31N 45°32' E 018°58'3 5.5
2018-Jun-17 14:01N 45°33' E 018°54'2 4.4
2018-Jun-17 13:31N 45°36' E 018°55'2 4.4
2018-Jun-17 13:01N 45°38' E 018°56'3 5.5
2018-Jun-17 12:31N 45°40' E 018°58'3 5.4
2018-Jun-17 12:00N 45°42' E 018°55'3 5.7
2018-Jun-17 11:31N 45°44' E 018°54'3 5.7
2018-Jun-17 11:01N 45°47' E 018°53'2 4.9
2018-Jun-17 10:31N 45°49' E 018°51'1 1.8
2018-Jun-17 09:58N 45°50' E 018°51'0 0.0
2018-Jun-17 09:29N 45°50' E 018°51'0 0.0
2018-Jun-17 08:58N 45°50' E 018°51'0 0.0
2018-Jun-17 08:30N 45°50' E 018°51'0 0.0
2018-Jun-17 08:00N 45°50' E 018°51'0 0.0
2018-Jun-17 07:29N 45°50' E 018°51'0 0.0
2018-Jun-17 07:00N 45°50' E 018°51'0 0.0
2018-Jun-17 06:30N 45°50' E 018°51'0 0.0
2018-Jun-17 06:00N 45°50' E 018°51'0 0.0
2018-Jun-17 05:30N 45°50' E 018°51'0 0.0
2018-Jun-17 04:57N 45°50' E 018°51'0 0.0
2018-Jun-17 04:30N 45°50' E 018°51'0 0.0
2018-Jun-17 04:00N 45°50' E 018°51'0 0.0
2018-Jun-17 03:29N 45°50' E 018°51'0 0.0
2018-Jun-17 02:59N 45°50' E 018°51'0 0.0
2018-Jun-17 02:30N 45°50' E 018°51'0 0.0
2018-Jun-17 01:58N 45°50' E 018°51'0 0.0
2018-Jun-17 01:29N 45°50' E 018°51'0 0.0
2018-Jun-17 01:00N 45°50' E 018°51'0 0.0
2018-Jun-17 00:29N 45°50' E 018°51'0 0.0
2018-Jun-17 00:00N 45°50' E 018°51'0 0.0
2018-Jun-16 23:30N 45°50' E 018°51'0 0.0
2018-Jun-16 23:00N 45°50' E 018°51'1 1.4
2018-Jun-16 22:30N 45°51' E 018°51'0 0.1
2018-Jun-16 20:03N 45°51' E 018°52'0 4.4
2018-Jun-16 20:00N 45°51' E 018°51'1 0.9
2018-Jun-16 19:21N 45°50' E 018°51'0 0.0
2018-Jun-16 18:56N 45°50' E 018°51'0 0.0
2018-Jun-16 18:30N 45°50' E 018°51'0 0.0
2018-Jun-16 18:00N 45°50' E 018°51'0 0.0
2018-Jun-16 17:29N 45°50' E 018°51'0 0.0
2018-Jun-16 17:00N 45°50' E 018°51'0 0.0
2018-Jun-16 16:30N 45°50' E 018°51'0 0.0
2018-Jun-16 16:01N 45°50' E 018°51'1 1.0
2018-Jun-16 15:31N 45°51' E 018°51'2 4.9
2018-Jun-16 15:00N 45°53' E 018°50'4 5.5
2018-Jun-16 14:15N 45°56' E 018°46'  
Track history (hours):
 
Tides and Currents Weather Stations Pressure Air Temp Water Temp Dewpoint Dewpoint Depression Visibility Wind Speed Wind Dir Waves Ship Positions

Mercur 205

Last reported at 2018-Jun-23 17:29 UTC. Time now 2018-Jun-23 17:28 UTC.
Position N 44°16' E 028°08'.

Length 34 m; draft 2.3 m.

Type: Ship. MMSI: 264162630.

Date/timePositionNaut miles runAvg speedWind from/ knotsBaromVisibWave heightAir tempDewpointWater temp
2018-Jun-23 17:29N 44°16' E 028°08'3 4.9
2018-Jun-23 16:56N 44°17' E 028°05'  
2018-Jun-20 02:53N 44°30' E 022°12'2 5.5
2018-Jun-20 02:31N 44°29' E 022°11'3 5.4
2018-Jun-20 02:01N 44°29' E 022°07'3 5.7
2018-Jun-20 01:31N 44°31' E 022°04'3 5.8
2018-Jun-20 01:01N 44°33' E 022°02'3 5.6
2018-Jun-20 00:30N 44°36' E 022°01'26 2.7
2018-Jun-19 14:58N 44°47' E 021°28'8 4.7
2018-Jun-19 13:09N 44°48' E 021°16'2 5.9
2018-Jun-19 12:53N 44°47' E 021°14'2 6.1
2018-Jun-19 12:30N 44°46' E 021°11'3 5.8
2018-Jun-19 12:00N 44°44' E 021°08'4 6.1
2018-Jun-19 11:24N 44°43' E 021°03'2 6.0
2018-Jun-19 11:00N 44°43' E 020°60'3 6.0
2018-Jun-19 10:30N 44°41' E 020°56'1 2.4
2018-Jun-19 10:00N 44°40' E 020°55'0 0.0
2018-Jun-19 09:30N 44°40' E 020°55'0 0.0
2018-Jun-19 09:00N 44°40' E 020°55'1 0.1
2018-Jun-19 02:54N 44°40' E 020°54'2 5.6
2018-Jun-19 02:29N 44°40' E 020°51'9 5.1
2018-Jun-19 00:42N 44°44' E 020°40'2 5.5
2018-Jun-19 00:25N 44°45' E 020°38'2 5.0
2018-Jun-19 00:00N 44°47' E 020°38'3 5.3
2018-Jun-18 23:30N 44°50' E 020°39'1 2.3
2018-Jun-18 23:00N 44°51' E 020°38'1 1.2
2018-Jun-18 22:31N 44°50' E 020°38'0 0.4
2018-Jun-18 22:01N 44°50' E 020°38'1 1.1
2018-Jun-18 21:30N 44°51' E 020°39'0 0.0
2018-Jun-18 21:01N 44°51' E 020°39'1 1.3
2018-Jun-18 20:30N 44°50' E 020°38'0 0.6
2018-Jun-18 20:01N 44°50' E 020°38'2 4.5
2018-Jun-18 19:30N 44°51' E 020°35'3 5.3
2018-Jun-18 19:01N 44°50' E 020°32'3 5.3
2018-Jun-18 18:31N 44°50' E 020°28'3 5.5
2018-Jun-18 18:01N 44°51' E 020°25'3 5.6
2018-Jun-18 17:30N 44°53' E 020°22'3 5.3
2018-Jun-18 17:00N 44°55' E 020°20'3 5.8
2018-Jun-18 16:31N 44°57' E 020°17'3 5.2
2018-Jun-18 16:01N 44°60' E 020°19'3 5.5
2018-Jun-18 15:31N 45°01' E 020°22'3 5.6
2018-Jun-18 15:00N 45°04' E 020°21'6 5.9
2018-Jun-18 14:04N 45°09' E 020°16'1 5.8
2018-Jun-18 13:58N 45°09' E 020°16'2 5.4
2018-Jun-18 13:31N 45°10' E 020°13'3 5.1
2018-Jun-18 13:01N 45°11' E 020°09'3 5.9
2018-Jun-18 12:31N 45°10' E 020°05'3 5.7
2018-Jun-18 12:01N 45°10' E 020°01'3 5.5
2018-Jun-18 11:31N 45°12' E 019°58'3 5.7
2018-Jun-18 11:01N 45°14' E 019°55'1 3.0
2018-Jun-18 10:31N 45°15' E 019°54'0 0.1
2018-Jun-18 10:01N 45°15' E 019°54'0 0.0
2018-Jun-18 09:31N 45°15' E 019°54'0 0.0
2018-Jun-18 09:01N 45°15' E 019°54'1 2.2
2018-Jun-18 08:31N 45°16' E 019°53'3 5.3
2018-Jun-18 08:00N 45°14' E 019°50'0 0.1
2018-Jun-18 07:31N 45°14' E 019°50'2 3.5
2018-Jun-18 07:01N 45°15' E 019°51'1 2.0
2018-Jun-18 06:31N 45°16' E 019°53'1 2.5
2018-Jun-18 06:00N 45°15' E 019°54'1 2.8
2018-Jun-18 05:31N 45°16' E 019°52'3 5.0
2018-Jun-18 05:01N 45°14' E 019°50'1 2.3
2018-Jun-18 04:30N 45°15' E 019°52'2 3.4
2018-Jun-18 04:01N 45°15' E 019°54'0 0.2
2018-Jun-18 03:31N 45°15' E 019°54'3 5.3
2018-Jun-18 03:01N 45°14' E 019°51'0 0.8
2018-Jun-18 02:31N 45°14' E 019°50'0 0.1
2018-Jun-18 02:01N 45°14' E 019°50'1 1.8
2018-Jun-18 01:31N 45°13' E 019°49'3 5.4
2018-Jun-18 01:01N 45°14' E 019°45'3 5.6
2018-Jun-18 00:28N 45°14' E 019°41'4 5.9
2018-Jun-17 23:43N 45°13' E 019°35'1 5.4
2018-Jun-17 23:28N 45°14' E 019°34'2 4.8
2018-Jun-17 23:00N 45°15' E 019°31'3 5.8
2018-Jun-17 22:31N 45°14' E 019°28'3 5.9
2018-Jun-17 22:01N 45°14' E 019°23'3 6.0
2018-Jun-17 21:31N 45°14' E 019°19'3 6.0
2018-Jun-17 21:01N 45°15' E 019°15'3 6.2
2018-Jun-17 20:31N 45°16' E 019°11'3 6.1
2018-Jun-17 20:01N 45°17' E 019°07'3 5.2
2018-Jun-17 19:30N 45°20' E 019°06'3 5.7
2018-Jun-17 19:00N 45°21' E 019°02'3 5.8
2018-Jun-17 18:31N 45°22' E 018°59'2 4.2
2018-Jun-17 18:00N 45°24' E 019°01'2 3.9
2018-Jun-17 17:31N 45°26' E 019°01'3 5.1
2018-Jun-17 17:00N 45°28' E 018°59'2 3.8
2018-Jun-17 16:31N 45°29' E 019°02'3 5.7
2018-Jun-17 16:01N 45°30' E 019°06'3 5.1
2018-Jun-17 15:31N 45°32' E 019°04'3 5.1
2018-Jun-17 15:01N 45°34' E 019°01'3 5.8
2018-Jun-17 14:31N 45°32' E 018°58'3 5.5
2018-Jun-17 14:01N 45°33' E 018°54'2 4.4
2018-Jun-17 13:31N 45°36' E 018°55'2 4.4
2018-Jun-17 13:01N 45°38' E 018°56'3 5.5
2018-Jun-17 12:31N 45°40' E 018°58'3 5.4
2018-Jun-17 12:00N 45°42' E 018°55'3 5.7
2018-Jun-17 11:31N 45°44' E 018°54'3 5.7
2018-Jun-17 11:01N 45°47' E 018°53'2 4.9
2018-Jun-17 10:31N 45°49' E 018°51'1 1.8
2018-Jun-17 09:58N 45°50' E 018°51'0 0.0
2018-Jun-17 09:29N 45°50' E 018°51'0 0.0
2018-Jun-17 08:58N 45°50' E 018°51'0 0.0
2018-Jun-17 08:30N 45°50' E 018°51'0 0.0
2018-Jun-17 08:00N 45°50' E 018°51'0 0.0
2018-Jun-17 07:29N 45°50' E 018°51'0 0.0
2018-Jun-17 07:00N 45°50' E 018°51'0 0.0
2018-Jun-17 06:30N 45°50' E 018°51'0 0.0
2018-Jun-17 06:00N 45°50' E 018°51'0 0.0
2018-Jun-17 05:30N 45°50' E 018°51'0 0.0
2018-Jun-17 04:57N 45°50' E 018°51'0 0.0
2018-Jun-17 04:30N 45°50' E 018°51'0 0.0
2018-Jun-17 04:00N 45°50' E 018°51'0 0.0
2018-Jun-17 03:29N 45°50' E 018°51'0 0.0
2018-Jun-17 02:59N 45°50' E 018°51'0 0.0
2018-Jun-17 02:30N 45°50' E 018°51'0 0.0
2018-Jun-17 01:58N 45°50' E 018°51'0 0.0
2018-Jun-17 01:29N 45°50' E 018°51'0 0.0
2018-Jun-17 01:00N 45°50' E 018°51'0 0.0
2018-Jun-17 00:29N 45°50' E 018°51'0 0.0
2018-Jun-17 00:00N 45°50' E 018°51'0 0.0
2018-Jun-16 23:30N 45°50' E 018°51'0 0.0
2018-Jun-16 23:00N 45°50' E 018°51'1 1.4
2018-Jun-16 22:30N 45°51' E 018°51'0 0.1
2018-Jun-16 20:03N 45°51' E 018°52'0 4.4
2018-Jun-16 20:00N 45°51' E 018°51'1 0.9
2018-Jun-16 19:21N 45°50' E 018°51'0 0.0
2018-Jun-16 18:56N 45°50' E 018°51'0 0.0
2018-Jun-16 18:30N 45°50' E 018°51'0 0.0
2018-Jun-16 18:00N 45°50' E 018°51'0 0.0
2018-Jun-16 17:29N 45°50' E 018°51'0 0.0
2018-Jun-16 17:00N 45°50' E 018°51'0 0.0
2018-Jun-16 16:30N 45°50' E 018°51'0 0.0
2018-Jun-16 16:01N 45°50' E 018°51'1 1.0
2018-Jun-16 15:31N 45°51' E 018°51'2 4.9
2018-Jun-16 15:00N 45°53' E 018°50'4 5.5
2018-Jun-16 14:15N 45°56' E 018°46'  

Dump ship's entire track history